sensor_id;sensor_type;location;lat;lon;timestamp;P1;durP1;ratioP1;P2;durP2;ratioP2
55362;SDS011;41244;49.242;9.060;2024-03-02T00:00:51;34.20;;;22.75;;
55362;SDS011;41244;49.242;9.060;2024-03-02T00:03:18;29.33;;;22.48;;
55362;SDS011;41244;49.242;9.060;2024-03-02T00:05:48;32.58;;;22.52;;
55362;SDS011;41244;49.242;9.060;2024-03-02T00:08:17;29.52;;;21.58;;
55362;SDS011;41244;49.242;9.060;2024-03-02T00:10:50;32.08;;;23.70;;
55362;SDS011;41244;49.242;9.060;2024-03-02T00:13:16;31.27;;;21.80;;
55362;SDS011;41244;49.242;9.060;2024-03-02T00:15:47;26.95;;;20.70;;
55362;SDS011;41244;49.242;9.060;2024-03-02T00:20:57;31.35;;;22.38;;
55362;SDS011;41244;49.242;9.060;2024-03-02T00:23:24;34.08;;;23.95;;
55362;SDS011;41244;49.242;9.060;2024-03-02T00:25:54;33.83;;;23.52;;
55362;SDS011;41244;49.242;9.060;2024-03-02T00:28:22;28.48;;;21.60;;
55362;SDS011;41244;49.242;9.060;2024-03-02T00:33:38;30.35;;;22.25;;
55362;SDS011;41244;49.242;9.060;2024-03-02T00:36:09;31.30;;;21.70;;
55362;SDS011;41244;49.242;9.060;2024-03-02T00:38:44;28.48;;;20.65;;
55362;SDS011;41244;49.242;9.060;2024-03-02T00:41:24;29.85;;;21.40;;
55362;SDS011;41244;49.242;9.060;2024-03-02T00:46:22;31.00;;;22.77;;
55362;SDS011;41244;49.242;9.060;2024-03-02T00:51:51;27.33;;;21.02;;
55362;SDS011;41244;49.242;9.060;2024-03-02T00:54:20;32.65;;;21.73;;
55362;SDS011;41244;49.242;9.060;2024-03-02T00:56:49;31.52;;;22.75;;
55362;SDS011;41244;49.242;9.060;2024-03-02T00:59:16;30.08;;;21.67;;
55362;SDS011;41244;49.242;9.060;2024-03-02T01:01:42;30.95;;;21.30;;
55362;SDS011;41244;49.242;9.060;2024-03-02T01:04:08;27.80;;;20.80;;
55362;SDS011;41244;49.242;9.060;2024-03-02T01:06:34;28.00;;;20.92;;
55362;SDS011;41244;49.242;9.060;2024-03-02T01:09:01;25.92;;;19.88;;
55362;SDS011;41244;49.242;9.060;2024-03-02T01:11:27;27.20;;;19.98;;
55362;SDS011;41244;49.242;9.060;2024-03-02T01:13:55;31.10;;;21.55;;
55362;SDS011;41244;49.242;9.060;2024-03-02T01:16:20;30.35;;;20.27;;
55362;SDS011;41244;49.242;9.060;2024-03-02T01:18:46;27.42;;;20.38;;
55362;SDS011;41244;49.242;9.060;2024-03-02T01:21:12;26.85;;;19.58;;
55362;SDS011;41244;49.242;9.060;2024-03-02T01:23:38;26.45;;;19.20;;
55362;SDS011;41244;49.242;9.060;2024-03-02T01:26:03;28.05;;;19.85;;
55362;SDS011;41244;49.242;9.060;2024-03-02T01:28:29;26.45;;;19.95;;
55362;SDS011;41244;49.242;9.060;2024-03-02T01:30:55;27.23;;;19.88;;
55362;SDS011;41244;49.242;9.060;2024-03-02T01:33:21;29.60;;;20.70;;
55362;SDS011;41244;49.242;9.060;2024-03-02T01:35:46;28.13;;;20.38;;
55362;SDS011;41244;49.242;9.060;2024-03-02T01:38:12;22.83;;;17.70;;
55362;SDS011;41244;49.242;9.060;2024-03-02T01:40:38;26.65;;;19.42;;
55362;SDS011;41244;49.242;9.060;2024-03-02T01:43:07;25.00;;;19.90;;
55362;SDS011;41244;49.242;9.060;2024-03-02T01:45:33;23.55;;;17.90;;
55362;SDS011;41244;49.242;9.060;2024-03-02T01:48:00;27.35;;;19.90;;
55362;SDS011;41244;49.242;9.060;2024-03-02T01:50:27;24.75;;;17.20;;
55362;SDS011;41244;49.242;9.060;2024-03-02T01:52:57;26.58;;;19.83;;
55362;SDS011;41244;49.242;9.060;2024-03-02T01:55:24;27.30;;;20.92;;
55362;SDS011;41244;49.242;9.060;2024-03-02T01:57:50;26.55;;;19.48;;
55362;SDS011;41244;49.242;9.060;2024-03-02T02:00:17;25.35;;;18.83;;
55362;SDS011;41244;49.242;9.060;2024-03-02T02:02:45;26.75;;;19.58;;
55362;SDS011;41244;49.242;9.060;2024-03-02T02:05:12;31.35;;;20.08;;
55362;SDS011;41244;49.242;9.060;2024-03-02T02:07:38;22.70;;;17.40;;
55362;SDS011;41244;49.242;9.060;2024-03-02T02:10:07;28.52;;;20.20;;
55362;SDS011;41244;49.242;9.060;2024-03-02T02:12:33;23.98;;;16.83;;
55362;SDS011;41244;49.242;9.060;2024-03-02T02:14:59;25.17;;;18.30;;
55362;SDS011;41244;49.242;9.060;2024-03-02T02:17:25;26.58;;;18.33;;
55362;SDS011;41244;49.242;9.060;2024-03-02T02:19:51;29.33;;;19.77;;
55362;SDS011;41244;49.242;9.060;2024-03-02T02:22:17;24.73;;;17.38;;
55362;SDS011;41244;49.242;9.060;2024-03-02T02:24:43;27.08;;;19.20;;
55362;SDS011;41244;49.242;9.060;2024-03-02T02:27:09;25.92;;;18.63;;
55362;SDS011;41244;49.242;9.060;2024-03-02T02:29:43;27.45;;;18.75;;
55362;SDS011;41244;49.242;9.060;2024-03-02T02:32:09;23.77;;;17.58;;
55362;SDS011;41244;49.242;9.060;2024-03-02T02:34:35;25.30;;;19.10;;
55362;SDS011;41244;49.242;9.060;2024-03-02T02:37:01;24.90;;;18.60;;
55362;SDS011;41244;49.242;9.060;2024-03-02T02:39:26;23.30;;;18.02;;
55362;SDS011;41244;49.242;9.060;2024-03-02T02:41:53;25.88;;;17.17;;
55362;SDS011;41244;49.242;9.060;2024-03-02T02:44:18;23.17;;;17.05;;
55362;SDS011;41244;49.242;9.060;2024-03-02T02:46:44;24.30;;;17.92;;
55362;SDS011;41244;49.242;9.060;2024-03-02T02:49:10;24.80;;;18.55;;
55362;SDS011;41244;49.242;9.060;2024-03-02T02:51:36;23.45;;;17.90;;
55362;SDS011;41244;49.242;9.060;2024-03-02T02:54:01;22.63;;;16.75;;
55362;SDS011;41244;49.242;9.060;2024-03-02T02:56:27;23.42;;;16.90;;
55362;SDS011;41244;49.242;9.060;2024-03-02T02:58:53;24.52;;;16.27;;
55362;SDS011;41244;49.242;9.060;2024-03-02T03:01:19;23.98;;;16.77;;
55362;SDS011;41244;49.242;9.060;2024-03-02T03:03:45;21.15;;;16.20;;
55362;SDS011;41244;49.242;9.060;2024-03-02T03:06:11;24.40;;;17.58;;
55362;SDS011;41244;49.242;9.060;2024-03-02T03:08:37;25.30;;;17.77;;
55362;SDS011;41244;49.242;9.060;2024-03-02T03:11:03;21.98;;;16.27;;
55362;SDS011;41244;49.242;9.060;2024-03-02T03:13:30;19.17;;;15.18;;
55362;SDS011;41244;49.242;9.060;2024-03-02T03:15:57;22.25;;;16.77;;
55362;SDS011;41244;49.242;9.060;2024-03-02T03:18:22;23.65;;;17.17;;
55362;SDS011;41244;49.242;9.060;2024-03-02T03:20:48;21.05;;;16.13;;
55362;SDS011;41244;49.242;9.060;2024-03-02T03:23:15;21.35;;;15.85;;
55362;SDS011;41244;49.242;9.060;2024-03-02T03:25:42;21.73;;;16.02;;
55362;SDS011;41244;49.242;9.060;2024-03-02T03:28:08;20.08;;;15.35;;
55362;SDS011;41244;49.242;9.060;2024-03-02T03:30:37;20.17;;;15.88;;
55362;SDS011;41244;49.242;9.060;2024-03-02T03:33:03;24.23;;;16.58;;
55362;SDS011;41244;49.242;9.060;2024-03-02T03:35:33;22.52;;;17.35;;
55362;SDS011;41244;49.242;9.060;2024-03-02T03:37:58;23.33;;;15.95;;
55362;SDS011;41244;49.242;9.060;2024-03-02T03:40:24;20.80;;;14.68;;
55362;SDS011;41244;49.242;9.060;2024-03-02T03:42:50;22.05;;;15.90;;
55362;SDS011;41244;49.242;9.060;2024-03-02T03:45:16;20.08;;;15.80;;
55362;SDS011;41244;49.242;9.060;2024-03-02T03:47:42;20.15;;;15.45;;
55362;SDS011;41244;49.242;9.060;2024-03-02T03:50:08;19.13;;;15.05;;
55362;SDS011;41244;49.242;9.060;2024-03-02T03:52:34;21.45;;;15.65;;
55362;SDS011;41244;49.242;9.060;2024-03-02T03:55:00;22.13;;;16.00;;
55362;SDS011;41244;49.242;9.060;2024-03-02T03:57:26;22.48;;;15.98;;
55362;SDS011;41244;49.242;9.060;2024-03-02T03:59:52;22.60;;;15.18;;
55362;SDS011;41244;49.242;9.060;2024-03-02T04:02:18;25.55;;;17.30;;
55362;SDS011;41244;49.242;9.060;2024-03-02T04:04:44;22.65;;;16.45;;
55362;SDS011;41244;49.242;9.060;2024-03-02T04:07:10;21.13;;;16.08;;
55362;SDS011;41244;49.242;9.060;2024-03-02T04:09:36;25.95;;;17.60;;
55362;SDS011;41244;49.242;9.060;2024-03-02T04:12:02;24.13;;;17.35;;
55362;SDS011;41244;49.242;9.060;2024-03-02T04:14:28;26.27;;;17.58;;
55362;SDS011;41244;49.242;9.060;2024-03-02T04:16:54;23.40;;;17.67;;
55362;SDS011;41244;49.242;9.060;2024-03-02T04:19:20;26.42;;;18.48;;
55362;SDS011;41244;49.242;9.060;2024-03-02T04:21:46;24.20;;;17.45;;
55362;SDS011;41244;49.242;9.060;2024-03-02T04:24:12;23.35;;;16.17;;
55362;SDS011;41244;49.242;9.060;2024-03-02T04:26:37;24.77;;;17.13;;
55362;SDS011;41244;49.242;9.060;2024-03-02T04:29:03;22.48;;;17.08;;
55362;SDS011;41244;49.242;9.060;2024-03-02T04:31:29;28.08;;;17.90;;
55362;SDS011;41244;49.242;9.060;2024-03-02T04:33:55;23.50;;;16.42;;
55362;SDS011;41244;49.242;9.060;2024-03-02T04:36:20;27.05;;;18.08;;
55362;SDS011;41244;49.242;9.060;2024-03-02T04:38:46;26.85;;;19.58;;
55362;SDS011;41244;49.242;9.060;2024-03-02T04:41:12;28.85;;;18.98;;
55362;SDS011;41244;49.242;9.060;2024-03-02T04:43:38;28.85;;;19.00;;
55362;SDS011;41244;49.242;9.060;2024-03-02T04:46:04;29.75;;;19.77;;
55362;SDS011;41244;49.242;9.060;2024-03-02T04:48:31;24.92;;;18.35;;
55362;SDS011;41244;49.242;9.060;2024-03-02T04:50:57;28.90;;;18.63;;
55362;SDS011;41244;49.242;9.060;2024-03-02T04:53:23;28.15;;;18.88;;
55362;SDS011;41244;49.242;9.060;2024-03-02T04:55:49;29.27;;;18.27;;
55362;SDS011;41244;49.242;9.060;2024-03-02T04:58:21;32.78;;;19.70;;
55362;SDS011;41244;49.242;9.060;2024-03-02T05:00:46;30.10;;;18.80;;
55362;SDS011;41244;49.242;9.060;2024-03-02T05:03:12;28.42;;;19.45;;
55362;SDS011;41244;49.242;9.060;2024-03-02T05:05:38;27.40;;;19.00;;
55362;SDS011;41244;49.242;9.060;2024-03-02T05:08:04;27.05;;;18.92;;
55362;SDS011;41244;49.242;9.060;2024-03-02T05:10:30;24.52;;;17.65;;
55362;SDS011;41244;49.242;9.060;2024-03-02T05:12:56;27.27;;;19.27;;
55362;SDS011;41244;49.242;9.060;2024-03-02T05:15:22;27.77;;;19.85;;
55362;SDS011;41244;49.242;9.060;2024-03-02T05:17:48;27.55;;;18.10;;
55362;SDS011;41244;49.242;9.060;2024-03-02T05:20:13;28.70;;;19.25;;
55362;SDS011;41244;49.242;9.060;2024-03-02T05:22:39;29.15;;;19.05;;
55362;SDS011;41244;49.242;9.060;2024-03-02T05:25:05;26.35;;;18.77;;
55362;SDS011;41244;49.242;9.060;2024-03-02T05:27:32;30.25;;;20.25;;
55362;SDS011;41244;49.242;9.060;2024-03-02T05:29:58;28.77;;;18.38;;
55362;SDS011;41244;49.242;9.060;2024-03-02T05:32:24;28.35;;;18.90;;
55362;SDS011;41244;49.242;9.060;2024-03-02T05:34:50;32.25;;;20.55;;
55362;SDS011;41244;49.242;9.060;2024-03-02T05:37:16;27.98;;;19.73;;
55362;SDS011;41244;49.242;9.060;2024-03-02T05:39:42;30.75;;;18.73;;
55362;SDS011;41244;49.242;9.060;2024-03-02T05:42:08;26.20;;;18.75;;
55362;SDS011;41244;49.242;9.060;2024-03-02T05:44:35;28.58;;;18.83;;
55362;SDS011;41244;49.242;9.060;2024-03-02T05:47:01;27.02;;;18.27;;
55362;SDS011;41244;49.242;9.060;2024-03-02T05:49:28;27.38;;;18.73;;
55362;SDS011;41244;49.242;9.060;2024-03-02T05:51:54;26.92;;;19.02;;
55362;SDS011;41244;49.242;9.060;2024-03-02T05:54:19;29.67;;;21.45;;
55362;SDS011;41244;49.242;9.060;2024-03-02T05:56:45;28.98;;;21.05;;
55362;SDS011;41244;49.242;9.060;2024-03-02T05:59:11;28.20;;;18.88;;
55362;SDS011;41244;49.242;9.060;2024-03-02T06:01:44;29.85;;;20.00;;
55362;SDS011;41244;49.242;9.060;2024-03-02T06:04:12;31.65;;;20.38;;
55362;SDS011;41244;49.242;9.060;2024-03-02T06:06:38;27.50;;;17.58;;
55362;SDS011;41244;49.242;9.060;2024-03-02T06:09:07;28.85;;;19.08;;
55362;SDS011;41244;49.242;9.060;2024-03-02T06:11:39;33.08;;;18.88;;
55362;SDS011;41244;49.242;9.060;2024-03-02T06:14:06;31.95;;;19.65;;
55362;SDS011;41244;49.242;9.060;2024-03-02T06:16:33;32.80;;;20.80;;
55362;SDS011;41244;49.242;9.060;2024-03-02T06:19:00;30.33;;;20.25;;
55362;SDS011;41244;49.242;9.060;2024-03-02T06:21:26;30.95;;;19.40;;
55362;SDS011;41244;49.242;9.060;2024-03-02T06:23:52;31.60;;;20.27;;
55362;SDS011;41244;49.242;9.060;2024-03-02T06:26:19;33.85;;;19.13;;
55362;SDS011;41244;49.242;9.060;2024-03-02T06:28:45;29.70;;;19.20;;
55362;SDS011;41244;49.242;9.060;2024-03-02T06:31:11;30.23;;;20.05;;
55362;SDS011;41244;49.242;9.060;2024-03-02T06:33:37;28.38;;;18.05;;
55362;SDS011;41244;49.242;9.060;2024-03-02T06:36:03;28.63;;;19.67;;
55362;SDS011;41244;49.242;9.060;2024-03-02T06:38:29;28.00;;;19.30;;
55362;SDS011;41244;49.242;9.060;2024-03-02T06:40:57;30.75;;;20.55;;
55362;SDS011;41244;49.242;9.060;2024-03-02T06:43:23;30.92;;;20.00;;
55362;SDS011;41244;49.242;9.060;2024-03-02T06:45:49;34.20;;;19.70;;
55362;SDS011;41244;49.242;9.060;2024-03-02T06:48:16;39.78;;;23.63;;
55362;SDS011;41244;49.242;9.060;2024-03-02T06:50:49;41.78;;;25.27;;
55362;SDS011;41244;49.242;9.060;2024-03-02T06:53:16;39.20;;;25.55;;
55362;SDS011;41244;49.242;9.060;2024-03-02T06:55:43;44.90;;;28.02;;
55362;SDS011;41244;49.242;9.060;2024-03-02T06:58:15;34.92;;;22.45;;
55362;SDS011;41244;49.242;9.060;2024-03-02T07:00:43;31.85;;;21.90;;
55362;SDS011;41244;49.242;9.060;2024-03-02T07:03:09;31.85;;;21.55;;
55362;SDS011;41244;49.242;9.060;2024-03-02T07:05:35;31.40;;;20.55;;
55362;SDS011;41244;49.242;9.060;2024-03-02T07:08:01;29.95;;;20.38;;
55362;SDS011;41244;49.242;9.060;2024-03-02T07:10:27;28.75;;;18.95;;
55362;SDS011;41244;49.242;9.060;2024-03-02T07:12:53;30.60;;;19.08;;
55362;SDS011;41244;49.242;9.060;2024-03-02T07:15:19;27.38;;;19.10;;
55362;SDS011;41244;49.242;9.060;2024-03-02T07:18:08;30.38;;;20.27;;
55362;SDS011;41244;49.242;9.060;2024-03-02T07:20:33;30.73;;;19.23;;
55362;SDS011;41244;49.242;9.060;2024-03-02T07:22:59;27.20;;;18.95;;
55362;SDS011;41244;49.242;9.060;2024-03-02T07:25:25;25.63;;;18.67;;
55362;SDS011;41244;49.242;9.060;2024-03-02T07:27:51;25.98;;;18.17;;
55362;SDS011;41244;49.242;9.060;2024-03-02T07:30:17;28.73;;;19.10;;
55362;SDS011;41244;49.242;9.060;2024-03-02T07:32:43;26.63;;;19.05;;
55362;SDS011;41244;49.242;9.060;2024-03-02T07:35:11;28.25;;;20.38;;
55362;SDS011;41244;49.242;9.060;2024-03-02T07:37:38;36.22;;;23.67;;
55362;SDS011;41244;49.242;9.060;2024-03-02T07:40:04;35.78;;;23.48;;
55362;SDS011;41244;49.242;9.060;2024-03-02T07:42:34;37.80;;;22.95;;
55362;SDS011;41244;49.242;9.060;2024-03-02T07:45:00;31.58;;;20.55;;
55362;SDS011;41244;49.242;9.060;2024-03-02T07:47:25;34.47;;;19.05;;
55362;SDS011;41244;49.242;9.060;2024-03-02T07:49:51;35.53;;;23.45;;
55362;SDS011;41244;49.242;9.060;2024-03-02T07:52:17;31.92;;;21.88;;
55362;SDS011;41244;49.242;9.060;2024-03-02T07:54:43;30.50;;;21.17;;
55362;SDS011;41244;49.242;9.060;2024-03-02T07:57:08;26.70;;;18.90;;
55362;SDS011;41244;49.242;9.060;2024-03-02T07:59:35;31.30;;;18.83;;
55362;SDS011;41244;49.242;9.060;2024-03-02T08:02:01;28.77;;;19.13;;
55362;SDS011;41244;49.242;9.060;2024-03-02T08:04:27;34.47;;;21.23;;
55362;SDS011;41244;49.242;9.060;2024-03-02T08:06:53;35.72;;;21.10;;
55362;SDS011;41244;49.242;9.060;2024-03-02T08:09:19;29.85;;;19.10;;
55362;SDS011;41244;49.242;9.060;2024-03-02T08:11:45;31.08;;;19.67;;
55362;SDS011;41244;49.242;9.060;2024-03-02T08:14:11;25.85;;;18.27;;
55362;SDS011;41244;49.242;9.060;2024-03-02T08:16:37;25.70;;;18.13;;
55362;SDS011;41244;49.242;9.060;2024-03-02T08:19:02;26.02;;;18.05;;
55362;SDS011;41244;49.242;9.060;2024-03-02T08:21:28;27.40;;;17.83;;
55362;SDS011;41244;49.242;9.060;2024-03-02T08:23:55;23.33;;;17.10;;
55362;SDS011;41244;49.242;9.060;2024-03-02T08:26:22;28.63;;;18.77;;
55362;SDS011;41244;49.242;9.060;2024-03-02T08:28:48;24.38;;;17.27;;
55362;SDS011;41244;49.242;9.060;2024-03-02T08:31:14;24.65;;;17.92;;
55362;SDS011;41244;49.242;9.060;2024-03-02T08:33:40;25.05;;;17.50;;
55362;SDS011;41244;49.242;9.060;2024-03-02T08:36:06;23.98;;;17.33;;
55362;SDS011;41244;49.242;9.060;2024-03-02T08:38:31;23.38;;;16.25;;
55362;SDS011;41244;49.242;9.060;2024-03-02T08:40:58;20.67;;;15.10;;
55362;SDS011;41244;49.242;9.060;2024-03-02T08:43:23;25.42;;;16.48;;
55362;SDS011;41244;49.242;9.060;2024-03-02T08:45:50;21.35;;;15.65;;
55362;SDS011;41244;49.242;9.060;2024-03-02T08:48:16;20.73;;;15.95;;
55362;SDS011;41244;49.242;9.060;2024-03-02T08:50:41;20.52;;;15.07;;
55362;SDS011;41244;49.242;9.060;2024-03-02T08:53:07;19.23;;;15.20;;
55362;SDS011;41244;49.242;9.060;2024-03-02T08:55:33;17.25;;;14.23;;
55362;SDS011;41244;49.242;9.060;2024-03-02T08:57:59;19.98;;;14.90;;
55362;SDS011;41244;49.242;9.060;2024-03-02T09:00:25;19.13;;;14.45;;
55362;SDS011;41244;49.242;9.060;2024-03-02T09:02:51;17.50;;;13.38;;
55362;SDS011;41244;49.242;9.060;2024-03-02T09:05:16;21.88;;;16.05;;
55362;SDS011;41244;49.242;9.060;2024-03-02T09:07:42;17.60;;;14.55;;
55362;SDS011;41244;49.242;9.060;2024-03-02T09:10:08;17.15;;;14.02;;
55362;SDS011;41244;49.242;9.060;2024-03-02T09:12:34;19.90;;;15.02;;
55362;SDS011;41244;49.242;9.060;2024-03-02T09:15:00;20.38;;;14.32;;
55362;SDS011;41244;49.242;9.060;2024-03-02T09:17:28;19.75;;;14.25;;
55362;SDS011;41244;49.242;9.060;2024-03-02T09:19:54;17.58;;;14.45;;
55362;SDS011;41244;49.242;9.060;2024-03-02T09:22:20;17.42;;;14.02;;
55362;SDS011;41244;49.242;9.060;2024-03-02T09:24:46;17.02;;;12.80;;
55362;SDS011;41244;49.242;9.060;2024-03-02T09:27:12;16.80;;;13.18;;
55362;SDS011;41244;49.242;9.060;2024-03-02T09:29:38;16.80;;;13.20;;
55362;SDS011;41244;49.242;9.060;2024-03-02T09:32:04;18.20;;;13.60;;
55362;SDS011;41244;49.242;9.060;2024-03-02T09:34:32;15.52;;;12.38;;
55362;SDS011;41244;49.242;9.060;2024-03-02T09:36:57;15.20;;;12.63;;
55362;SDS011;41244;49.242;9.060;2024-03-02T09:39:23;15.55;;;11.68;;
55362;SDS011;41244;49.242;9.060;2024-03-02T09:41:50;16.48;;;12.85;;
55362;SDS011;41244;49.242;9.060;2024-03-02T09:44:16;13.20;;;11.18;;
55362;SDS011;41244;49.242;9.060;2024-03-02T09:46:42;15.52;;;11.38;;
55362;SDS011;41244;49.242;9.060;2024-03-02T09:49:09;14.27;;;11.10;;
55362;SDS011;41244;49.242;9.060;2024-03-02T09:51:36;14.60;;;11.70;;
55362;SDS011;41244;49.242;9.060;2024-03-02T09:54:02;13.48;;;11.63;;
55362;SDS011;41244;49.242;9.060;2024-03-02T09:56:28;11.95;;;10.43;;
55362;SDS011;41244;49.242;9.060;2024-03-02T09:58:54;12.75;;;10.90;;
55362;SDS011;41244;49.242;9.060;2024-03-02T10:01:20;14.27;;;10.70;;
55362;SDS011;41244;49.242;9.060;2024-03-02T10:03:45;14.63;;;10.48;;
55362;SDS011;41244;49.242;9.060;2024-03-02T10:08:48;14.85;;;10.73;;
55362;SDS011;41244;49.242;9.060;2024-03-02T10:11:28;11.80;;;9.90;;
55362;SDS011;41244;49.242;9.060;2024-03-02T10:14:05;12.10;;;9.70;;
55362;SDS011;41244;49.242;9.060;2024-03-02T10:16:33;14.02;;;9.63;;
55362;SDS011;41244;49.242;9.060;2024-03-02T10:19:16;10.90;;;9.75;;
55362;SDS011;41244;49.242;9.060;2024-03-02T10:21:46;11.80;;;9.25;;
55362;SDS011;41244;49.242;9.060;2024-03-02T10:24:17;13.65;;;9.60;;
55362;SDS011;41244;49.242;9.060;2024-03-02T10:26:43;14.23;;;9.88;;
55362;SDS011;41244;49.242;9.060;2024-03-02T10:29:09;11.95;;;8.38;;
55362;SDS011;41244;49.242;9.060;2024-03-02T10:31:39;13.98;;;9.82;;
55362;SDS011;41244;49.242;9.060;2024-03-02T10:34:10;12.18;;;9.45;;
55362;SDS011;41244;49.242;9.060;2024-03-02T10:36:42;10.38;;;9.00;;
55362;SDS011;41244;49.242;9.060;2024-03-02T10:39:09;11.20;;;8.57;;
55362;SDS011;41244;49.242;9.060;2024-03-02T10:41:35;12.93;;;10.15;;
55362;SDS011;41244;49.242;9.060;2024-03-02T10:44:03;11.00;;;8.80;;
55362;SDS011;41244;49.242;9.060;2024-03-02T10:46:34;11.45;;;8.70;;
55362;SDS011;41244;49.242;9.060;2024-03-02T10:49:02;9.98;;;8.50;;
55362;SDS011;41244;49.242;9.060;2024-03-02T10:51:33;10.25;;;8.52;;
55362;SDS011;41244;49.242;9.060;2024-03-02T10:54:01;13.13;;;9.90;;
55362;SDS011;41244;49.242;9.060;2024-03-02T11:01:51;10.88;;;9.77;;
55362;SDS011;41244;49.242;9.060;2024-03-02T11:04:25;10.73;;;9.55;;
55362;SDS011;41244;49.242;9.060;2024-03-02T11:06:52;10.98;;;9.70;;
55362;SDS011;41244;49.242;9.060;2024-03-02T11:09:26;7.80;;;6.93;;
55362;SDS011;41244;49.242;9.060;2024-03-02T11:11:58;8.68;;;7.20;;
55362;SDS011;41244;49.242;9.060;2024-03-02T11:14:30;12.00;;;7.88;;
55362;SDS011;41244;49.242;9.060;2024-03-02T11:16:58;9.68;;;7.82;;
55362;SDS011;41244;49.242;9.060;2024-03-02T11:19:27;9.77;;;8.38;;
55362;SDS011;41244;49.242;9.060;2024-03-02T11:21:53;10.95;;;9.43;;
55362;SDS011;41244;49.242;9.060;2024-03-02T11:26:53;10.98;;;9.30;;
55362;SDS011;41244;49.242;9.060;2024-03-02T11:32:06;9.95;;;8.13;;
55362;SDS011;41244;49.242;9.060;2024-03-02T11:34:42;8.57;;;7.32;;
55362;SDS011;41244;49.242;9.060;2024-03-02T11:37:20;10.68;;;8.70;;
55362;SDS011;41244;49.242;9.060;2024-03-02T11:39:46;10.68;;;9.52;;
55362;SDS011;41244;49.242;9.060;2024-03-02T11:42:14;11.55;;;8.82;;
55362;SDS011;41244;49.242;9.060;2024-03-02T11:44:47;10.18;;;9.02;;
55362;SDS011;41244;49.242;9.060;2024-03-02T11:47:15;11.75;;;9.00;;
55362;SDS011;41244;49.242;9.060;2024-03-02T11:49:46;13.05;;;9.07;;
55362;SDS011;41244;49.242;9.060;2024-03-02T11:52:16;9.32;;;8.05;;
55362;SDS011;41244;49.242;9.060;2024-03-02T11:54:46;11.18;;;8.82;;
55362;SDS011;41244;49.242;9.060;2024-03-02T11:57:14;12.45;;;9.05;;
55362;SDS011;41244;49.242;9.060;2024-03-02T11:59:42;9.55;;;7.72;;
55362;SDS011;41244;49.242;9.060;2024-03-02T12:02:21;9.35;;;8.07;;
55362;SDS011;41244;49.242;9.060;2024-03-02T12:04:47;10.05;;;7.50;;
55362;SDS011;41244;49.242;9.060;2024-03-02T12:07:23;11.35;;;6.60;;
55362;SDS011;41244;49.242;9.060;2024-03-02T12:09:49;9.30;;;6.32;;
55362;SDS011;41244;49.242;9.060;2024-03-02T12:12:28;8.85;;;7.45;;
55362;SDS011;41244;49.242;9.060;2024-03-02T12:14:54;7.25;;;6.47;;
55362;SDS011;41244;49.242;9.060;2024-03-02T12:17:21;9.40;;;6.60;;
55362;SDS011;41244;49.242;9.060;2024-03-02T12:19:48;9.98;;;6.28;;
55362;SDS011;41244;49.242;9.060;2024-03-02T12:22:14;7.22;;;6.53;;
55362;SDS011;41244;49.242;9.060;2024-03-02T12:24:41;11.70;;;6.43;;
55362;SDS011;41244;49.242;9.060;2024-03-02T12:27:10;6.43;;;5.63;;
55362;SDS011;41244;49.242;9.060;2024-03-02T12:29:37;6.35;;;5.75;;
55362;SDS011;41244;49.242;9.060;2024-03-02T12:32:04;7.30;;;5.82;;
55362;SDS011;41244;49.242;9.060;2024-03-02T12:34:31;5.70;;;5.10;;
55362;SDS011;41244;49.242;9.060;2024-03-02T12:36:57;5.07;;;4.57;;
55362;SDS011;41244;49.242;9.060;2024-03-02T12:39:22;5.47;;;4.88;;
55362;SDS011;41244;49.242;9.060;2024-03-02T12:41:49;8.50;;;5.95;;
55362;SDS011;41244;49.242;9.060;2024-03-02T12:44:16;8.27;;;5.63;;
55362;SDS011;41244;49.242;9.060;2024-03-02T12:46:43;6.13;;;5.30;;
55362;SDS011;41244;49.242;9.060;2024-03-02T12:49:10;12.82;;;8.32;;
55362;SDS011;41244;49.242;9.060;2024-03-02T12:51:38;10.70;;;6.78;;
55362;SDS011;41244;49.242;9.060;2024-03-02T12:54:09;5.80;;;5.18;;
55362;SDS011;41244;49.242;9.060;2024-03-02T12:56:38;7.95;;;4.82;;
55362;SDS011;41244;49.242;9.060;2024-03-02T12:59:10;5.68;;;4.88;;
55362;SDS011;41244;49.242;9.060;2024-03-02T13:01:53;6.32;;;5.07;;
55362;SDS011;41244;49.242;9.060;2024-03-02T13:04:22;7.30;;;4.82;;
55362;SDS011;41244;49.242;9.060;2024-03-02T13:06:56;6.70;;;4.85;;
55362;SDS011;41244;49.242;9.060;2024-03-02T13:09:22;5.85;;;5.05;;
55362;SDS011;41244;49.242;9.060;2024-03-02T13:11:48;6.72;;;4.85;;
55362;SDS011;41244;49.242;9.060;2024-03-02T13:14:14;5.68;;;5.10;;
55362;SDS011;41244;49.242;9.060;2024-03-02T13:16:40;6.95;;;5.00;;
55362;SDS011;41244;49.242;9.060;2024-03-02T13:19:17;6.13;;;4.82;;
55362;SDS011;41244;49.242;9.060;2024-03-02T13:21:46;5.20;;;4.70;;
55362;SDS011;41244;49.242;9.060;2024-03-02T13:24:12;7.18;;;4.57;;
55362;SDS011;41244;49.242;9.060;2024-03-02T13:26:38;5.45;;;4.68;;
55362;SDS011;41244;49.242;9.060;2024-03-02T13:29:05;6.30;;;4.55;;
55362;SDS011;41244;49.242;9.060;2024-03-02T13:31:31;6.07;;;4.82;;
55362;SDS011;41244;49.242;9.060;2024-03-02T13:33:56;6.88;;;4.72;;
55362;SDS011;41244;49.242;9.060;2024-03-02T13:36:22;4.47;;;3.88;;
55362;SDS011;41244;49.242;9.060;2024-03-02T13:38:48;4.00;;;3.60;;
55362;SDS011;41244;49.242;9.060;2024-03-02T13:41:14;4.03;;;3.40;;
55362;SDS011;41244;49.242;9.060;2024-03-02T13:43:40;5.88;;;3.65;;
55362;SDS011;41244;49.242;9.060;2024-03-02T13:46:06;4.40;;;4.00;;
55362;SDS011;41244;49.242;9.060;2024-03-02T13:48:32;4.55;;;4.15;;
55362;SDS011;41244;49.242;9.060;2024-03-02T13:50:58;4.28;;;3.88;;
55362;SDS011;41244;49.242;9.060;2024-03-02T13:53:24;4.80;;;3.42;;
55362;SDS011;41244;49.242;9.060;2024-03-02T13:55:50;3.60;;;3.30;;
55362;SDS011;41244;49.242;9.060;2024-03-02T13:58:15;3.22;;;2.92;;
55362;SDS011;41244;49.242;9.060;2024-03-02T14:00:42;4.18;;;3.30;;
55362;SDS011;41244;49.242;9.060;2024-03-02T14:03:09;3.75;;;3.15;;
55362;SDS011;41244;49.242;9.060;2024-03-02T14:05:35;4.00;;;3.40;;
55362;SDS011;41244;49.242;9.060;2024-03-02T14:08:01;3.88;;;3.38;;
55362;SDS011;41244;49.242;9.060;2024-03-02T14:10:27;3.30;;;3.00;;
55362;SDS011;41244;49.242;9.060;2024-03-02T14:12:53;3.33;;;2.80;;
55362;SDS011;41244;49.242;9.060;2024-03-02T14:15:20;3.70;;;3.10;;
55362;SDS011;41244;49.242;9.060;2024-03-02T14:17:47;3.97;;;2.95;;
55362;SDS011;41244;49.242;9.060;2024-03-02T14:20:13;5.78;;;3.47;;
55362;SDS011;41244;49.242;9.060;2024-03-02T14:22:39;3.75;;;3.33;;
55362;SDS011;41244;49.242;9.060;2024-03-02T14:25:05;3.50;;;2.70;;
55362;SDS011;41244;49.242;9.060;2024-03-02T14:27:31;2.60;;;2.40;;
55362;SDS011;41244;49.242;9.060;2024-03-02T14:29:57;2.65;;;2.45;;
55362;SDS011;41244;49.242;9.060;2024-03-02T14:32:23;2.60;;;2.40;;
55362;SDS011;41244;49.242;9.060;2024-03-02T14:34:48;5.00;;;3.13;;
55362;SDS011;41244;49.242;9.060;2024-03-02T14:37:14;2.60;;;2.17;;
55362;SDS011;41244;49.242;9.060;2024-03-02T14:39:40;2.40;;;2.20;;
55362;SDS011;41244;49.242;9.060;2024-03-02T14:42:06;2.78;;;2.25;;
55362;SDS011;41244;49.242;9.060;2024-03-02T14:44:32;2.10;;;2.00;;
55362;SDS011;41244;49.242;9.060;2024-03-02T14:46:59;2.33;;;2.13;;
55362;SDS011;41244;49.242;9.060;2024-03-02T14:49:31;2.10;;;2.00;;
55362;SDS011;41244;49.242;9.060;2024-03-02T14:51:58;2.63;;;2.42;;